createdAt,value
2017-03-27T08:12:20.226Z,375
2017-03-27T08:13:24.830Z,365
2017-03-27T08:14:29.574Z,355
2017-03-27T08:15:34.205Z,355
2017-03-27T08:16:39.189Z,365
2017-03-27T08:17:43.600Z,355
2017-03-27T08:18:48.054Z,355
2017-03-27T08:19:52.399Z,350
2017-03-27T08:20:56.942Z,350
2017-03-27T08:22:01.292Z,360
2017-03-27T08:23:05.678Z,375
2017-03-27T08:24:10.869Z,390
2017-03-27T08:25:15.328Z,410
2017-03-27T08:26:19.697Z,415
2017-03-27T08:27:24.193Z,425
2017-03-27T08:28:28.707Z,445
2017-03-27T08:29:33.166Z,445
2017-03-27T08:30:37.572Z,440
2017-03-27T08:31:42.042Z,450
2017-03-27T08:32:46.529Z,440
2017-03-27T08:33:51.029Z,440
2017-03-27T08:34:55.496Z,450
2017-03-27T08:35:59.897Z,450
2017-03-27T08:37:04.333Z,450
2017-03-27T08:38:09.096Z,455
2017-03-27T08:39:13.471Z,455
2017-03-27T08:40:17.862Z,450
2017-03-27T08:41:22.369Z,445
2017-03-27T08:42:26.744Z,445
2017-03-27T08:43:31.224Z,445
2017-03-27T08:44:35.911Z,445
2017-03-27T08:45:40.283Z,445
2017-03-27T08:46:44.727Z,450
2017-03-27T08:47:49.174Z,450
2017-03-27T08:48:53.604Z,450
2017-03-27T08:49:58.036Z,450
2017-03-27T08:51:02.469Z,450
2017-03-27T08:52:06.911Z,445
2017-03-27T08:53:11.384Z,440
2017-03-27T08:54:15.836Z,435
2017-03-27T08:55:20.271Z,420
2017-03-27T08:56:24.693Z,420
2017-03-27T08:57:29.105Z,415
2017-03-27T08:58:33.466Z,415
2017-03-27T08:59:37.850Z,415
2017-03-27T09:00:42.397Z,430
2017-03-27T09:01:46.856Z,450
2017-03-27T09:02:51.316Z,460
2017-03-27T09:03:55.754Z,470
2017-03-27T09:05:00.212Z,470
2017-03-27T09:06:04.825Z,475
2017-03-27T09:07:09.249Z,480
2017-03-27T09:08:13.671Z,485
2017-03-27T09:09:18.075Z,490
2017-03-27T09:10:22.421Z,485
2017-03-27T09:11:26.875Z,490
2017-03-27T09:12:31.345Z,490
2017-03-27T09:13:35.847Z,495
2017-03-27T09:14:40.521Z,505
2017-03-27T09:15:45.001Z,510
2017-03-27T09:16:49.492Z,520
2017-03-27T09:17:53.902Z,520
2017-03-27T09:18:58.391Z,520
2017-03-27T09:20:02.837Z,525
2017-03-27T09:21:07.303Z,520
2017-03-27T09:22:11.746Z,520
2017-03-27T09:23:16.254Z,515
2017-03-27T09:24:20.666Z,520
2017-03-27T09:25:25.251Z,520
2017-03-27T09:26:29.700Z,525
2017-03-27T09:27:34.203Z,520
2017-03-27T09:28:38.677Z,520
2017-03-27T09:29:43.154Z,525
2017-03-27T09:30:47.841Z,525
2017-03-27T09:31:52.285Z,520
2017-03-27T09:32:56.689Z,515
2017-03-27T09:34:01.106Z,510
2017-03-27T09:35:05.574Z,515
2017-03-27T09:36:10.269Z,520
2017-03-27T09:37:14.899Z,520
2017-03-27T09:38:19.432Z,515
2017-03-27T09:39:23.805Z,515
2017-03-27T09:40:28.374Z,515
2017-03-27T09:41:32.794Z,520
2017-03-27T09:42:37.232Z,510
2017-03-27T09:43:41.663Z,515
